[x] [x]
.:Aeroklub Partizánske:. |  .:Fotogaléria:. |  .:Videogaléria:. |  .:Foto týždňa:. |  .:Kniha návštev:. |  .:Linky:. |  .:Moje konto:.
 MENU [x]

 METEO [x]

 FotoGaléria [x]

 Slnko [x]
LZPT Partizánske
48°37'N 18°20'E
Východ: 6:24 AM
Západ: 6:58 PM
LZIB Bratislava
48°10'N 17°12'E
Východ: 6:29 AM
Západ: 7:03 PM
LZKZ Košice
48°39'N 21°14'E
Východ: 6:12 AM
Západ: 6:47 PM

 Jazyky [x]
Vyberte jazyk rozhrania:

Slovak English German Polish


  SPRÁVY METAR - ČESKÁ REPUBLIKA
Brno-TuřanyLKTB 171930Z 09004KT CAVOK 16/13 Q1018 NOSIGdekóduj
ČáslavLKCV 171900Z 10005KT CAVOK 17/14 Q1017 NOSIG RMK BLU BLUdekóduj
HolešovLKHO 010800Z VRB03KT CAVOK 23/17 Q1019dekóduj
Hradec Královedekóduj
Karlovy VaryLKKV 171900Z 13007KT CAVOK 15/11 Q1016dekóduj
KunoviceLKKU 171800Z 10001KT 9999 FEW041 16/15 Q1018 RMK REG QNH 1013dekóduj
LiberecLKLB 020602Z 16003KT 9999 FEW016 BKN043 M01/M02 Q1016dekóduj
Mariánsky Láznědekóduj
Náměšť nad OslavouLKNA 171900Z 12005KT CAVOK 15/12 Q1018 NOSIG RMK BLU BLUdekóduj
Ostrava-MošnovLKMT 171930Z 16005KT 140V210 9999 -RA NSC 16/14 Q101dekóduj
PardubiceLKPD 171900Z 12006KT CAVOK 18/14 Q1017 NOSIG RMK BLU BLUdekóduj
Praha-KbelyLKKB 171900Z 10007KT CAVOK 17/12 Q1016 NOSIGdekóduj
Praha-RuzyněLKPR 171930Z 11008KT CAVOK 16/11 Q1016 NOSIGdekóduj
PřerovLKPO 010000Z 05005KT CAVOK 04/01 Q1013dekóduj
 FreeFly INFO [x]
COROWA 2009


COROWA 2009


COROWA 2009



 LZPT webcam [x]

 Foto týždňa [x]

 KBO SNA [x]

 Login [x]
Užívateľské meno

Heslo


Ešte nemáš konto? Môžeš si ho vytvoriť. Registrovaný užívateľ má množstvo výhod, napr. posielanie okamžitých správ iným užívateľom, posielanie komentárov s vlastným menom, možnosť pridávať fotografie do galérie...

 Kto je online [x]
Momentálne je online 46 hostí a 0 členov.

Ste anonymný užívateľ. Zaregistrovať sa môžete tu

DETAILY

 Linky [x]

 Počítadlo návštev [x]
Zaznamenali sme
33793632
strán zobrazených od júna 2003

Počet dnešných unikátnych IP adries:
0



www.freefly.sk
Powered by SzMsoft ©2003-2005. Polish translations by Cezary Dąbek. Flying server www.freefly.sk is administrated by maro@freefly.sk - www.artweb.freefly.sk
PHP-Nuke Copyright © 2004 by Francisco Burzi. This is free software, and you may redistribute it under the GPL. PHP-Nuke comes with absolutely no warranty, for details, see the license.